Terminal Aerodrome Forecast
Issued by NWS

Home | Current Version | Previous Version | Text Only | Print | Product List | Glossary On
Versions: 1 2 3 4 5 6 7 8 9 10 11 12 13 14 15 16 17
000
FTUS43 KICT 292320
TAFHUT
TAF
KHUT 292320Z 3000/3024 02015G22KT 4SM -RA BR OVC008
     FM300300 01015G22KT 4SM -RA BR OVC004
     FM301500 32010KT 5SM -RA BR OVC008
     FM301800 29015G24KT P6SM OVC015=

USA.gov is the U.S. government's official web portal to all federal, state and local government web resources and services.